Time;durP1;ratioP1;P1;durP2;ratioP2;P2;SDS_P1;SDS_P2;PMS_P1;PMS_P2;Temp;Humidity;BMP_temperature;BMP_pressure;BME280_temperature;BME280_humidity;BME280_pressure;Samples;Min_cycle;Max_cycle;Signal;HPM_P1;HPM_P2
2021/04/20 00:01:43;;;;;;;37.40;28.70;;;15.20;79.40;;;;;;5069191;28;20436;-74
2021/04/20 00:04:09;;;;;;;38.72;29.52;;;15.20;79.80;;;;;;5069473;28;20424;-76
2021/04/20 00:06:35;;;;;;;38.30;29.40;;;15.20;80.30;;;;;;5067097;28;20435;-73
2021/04/20 00:09:05;;;;;;;39.20;30.05;;;15.10;80.70;;;;;;5067812;28;20435;-73
2021/04/20 00:11:31;;;;;;;40.00;29.88;;;15.10;81.10;;;;;;5074440;28;20425;-74
2021/04/20 00:13:58;;;;;;;38.30;29.50;;;15.10;81.20;;;;;;5071294;28;20417;-74
2021/04/20 00:16:25;;;;;;;40.38;30.65;;;15.10;81.20;;;;;;5070529;28;20438;-74
2021/04/20 00:18:51;;;;;;;38.22;29.63;;;15.10;81.20;;;;;;5065108;28;20777;-74
2021/04/20 00:21:18;;;;;;;41.90;30.30;;;15.10;81.10;;;;;;5070516;28;20444;-75
2021/04/20 00:23:45;;;;;;;41.85;30.45;;;15.10;81.20;;;;;;5065859;28;20412;-76
2021/04/20 00:26:11;;;;;;;38.85;30.00;;;15.00;81.30;;;;;;5068584;28;20418;-75
2021/04/20 00:28:37;;;;;;;41.33;31.00;;;15.00;81.50;;;;;;5066858;28;20450;-74
2021/04/20 00:31:04;;;;;;;40.63;31.50;;;15.00;81.70;;;;;;5073893;28;20422;-74
2021/04/20 00:33:31;;;;;;;41.63;30.63;;;14.90;81.90;;;;;;5070662;28;20425;-74
2021/04/20 00:35:58;;;;;;;43.50;31.33;;;14.90;82.00;;;;;;5066008;28;20434;-75
2021/04/20 00:38:24;;;;;;;41.60;31.75;;;14.90;82.40;;;;;;5067148;28;20427;-75
2021/04/20 00:40:51;;;;;;;43.25;31.50;;;14.90;82.60;;;;;;5066206;28;20414;-75
2021/04/20 00:43:17;;;;;;;42.72;31.40;;;14.90;82.70;;;;;;5066853;28;20911;-74
2021/04/20 00:45:43;;;;;;;41.65;31.70;;;14.80;82.30;;;;;;5068716;28;20426;-74
2021/04/20 00:48:10;;;;;;;39.70;31.02;;;14.80;82.30;;;;;;5070165;28;20438;-75
2021/04/20 00:50:39;;;;;;;41.25;32.00;;;14.80;82.10;;;;;;5065530;28;20421;-74
2021/04/20 00:53:08;;;;;;;42.08;31.77;;;14.80;82.20;;;;;;5066718;28;20427;-74
2021/04/20 00:55:35;;;;;;;41.97;31.90;;;14.80;82.30;;;;;;5073768;28;20433;-74
2021/04/20 00:58:04;;;;;;;41.70;31.57;;;14.80;82.40;;;;;;5073164;28;20484;-74
2021/04/20 01:00:32;;;;;;;42.47;32.20;;;14.80;82.20;;;;;;5069496;28;20428;-76
2021/04/20 01:02:59;;;;;;;40.78;31.67;;;14.80;82.20;;;;;;5072029;28;20760;-74
2021/04/20 01:05:28;;;;;;;41.42;31.85;;;14.70;82.40;;;;;;5067073;28;20923;-75
2021/04/20 01:07:58;;;;;;;44.38;32.55;;;14.80;82.40;;;;;;5067539;28;20415;-75
2021/04/20 01:10:26;;;;;;;41.47;32.78;;;14.70;82.50;;;;;;5068607;28;20745;-74
2021/04/20 01:12:52;;;;;;;44.22;33.25;;;14.70;82.70;;;;;;5071048;28;20415;-72
2021/04/20 01:15:19;;;;;;;44.17;32.67;;;14.70;83.10;;;;;;5066940;28;20506;-73
2021/04/20 01:17:45;;;;;;;45.97;33.33;;;14.70;83.30;;;;;;5068874;28;20431;-73
2021/04/20 01:20:13;;;;;;;39.60;32.33;;;14.60;83.10;;;;;;5072005;28;20423;-75
2021/04/20 01:22:41;;;;;;;42.35;32.67;;;14.60;82.90;;;;;;5080219;28;20786;-75
2021/04/20 01:25:11;;;;;;;43.97;33.20;;;14.60;82.80;;;;;;5077350;28;20434;-75
2021/04/20 01:27:38;;;;;;;44.50;32.85;;;14.60;83.60;;;;;;5070045;28;20419;-75
2021/04/20 01:30:07;;;;;;;42.75;32.83;;;14.50;82.70;;;;;;5074146;28;20431;-75
2021/04/20 01:32:36;;;;;;;40.90;31.70;;;14.50;82.50;;;;;;5071842;28;20780;-74
2021/04/20 01:35:05;;;;;;;42.70;32.42;;;14.50;82.30;;;;;;5073772;28;20424;-76
2021/04/20 01:37:31;;;;;;;39.85;31.75;;;14.40;82.40;;;;;;5072286;28;20446;-74
2021/04/20 01:39:58;;;;;;;43.05;32.38;;;14.40;82.20;;;;;;5073444;28;20432;-74
2021/04/20 01:42:26;;;;;;;44.00;32.97;;;14.40;82.50;;;;;;5067418;28;21066;-75
2021/04/20 01:44:53;;;;;;;44.90;33.97;;;14.30;82.60;;;;;;5068918;28;20513;-75
2021/04/20 01:47:19;;;;;;;45.90;33.33;;;14.30;83.00;;;;;;5078424;28;20487;-75
2021/04/20 01:49:46;;;;;;;46.30;34.42;;;14.30;83.40;;;;;;5078527;28;20431;-75
2021/04/20 01:52:14;;;;;;;44.35;34.30;;;14.30;83.90;;;;;;5074913;28;20424;-74
2021/04/20 01:54:41;;;;;;;43.92;34.15;;;14.20;84.00;;;;;;5064949;28;20416;-75
2021/04/20 01:57:08;;;;;;;45.88;33.80;;;14.20;84.40;;;;;;5077620;28;20431;-75
2021/04/20 01:59:36;;;;;;;46.53;34.63;;;14.20;84.60;;;;;;5077041;28;20447;-75
2021/04/20 02:02:03;;;;;;;45.33;34.08;;;14.20;84.80;;;;;;5075682;28;20428;-74
2021/04/20 02:04:29;;;;;;;49.33;35.25;;;14.10;85.10;;;;;;5076856;28;20429;-75
2021/04/20 02:06:56;;;;;;;45.90;34.45;;;14.20;85.20;;;;;;5071403;28;20435;-75
2021/04/20 02:09:22;;;;;;;50.97;35.92;;;14.20;85.00;;;;;;5071775;28;20425;-74
2021/04/20 02:11:49;;;;;;;45.72;33.88;;;14.20;84.80;;;;;;5076321;28;20419;-74
2021/04/20 02:14:15;;;;;;;44.92;34.70;;;14.20;85.10;;;;;;5069043;28;20429;-76
2021/04/20 02:16:43;;;;;;;45.30;34.67;;;14.20;86.20;;;;;;5072629;28;20871;-74
2021/04/20 02:19:13;;;;;;;48.75;35.28;;;14.20;85.40;;;;;;5071026;28;20431;-75
2021/04/20 02:21:40;;;;;;;45.63;34.25;;;14.10;85.10;;;;;;5068083;28;20419;-73
2021/04/20 02:24:08;;;;;;;47.10;34.28;;;14.10;85.00;;;;;;5077209;28;20426;-74
2021/04/20 02:26:37;;;;;;;46.30;34.42;;;14.10;84.80;;;;;;5077927;28;20461;-74
2021/04/20 02:29:05;;;;;;;46.88;34.67;;;14.10;84.80;;;;;;5066735;28;20876;-74
2021/04/20 02:31:34;;;;;;;43.67;33.92;;;14.10;85.10;;;;;;5072426;28;20423;-74
2021/04/20 02:34:04;;;;;;;46.63;34.80;;;14.10;85.30;;;;;;5069306;28;20447;-74
2021/04/20 02:36:31;;;;;;;47.47;35.28;;;14.10;85.50;;;;;;5073497;28;20498;-75
2021/04/20 02:38:58;;;;;;;46.90;35.95;;;14.10;85.30;;;;;;5068716;28;20431;-74
2021/04/20 02:41:25;;;;;;;47.90;36.50;;;14.00;85.50;;;;;;5077497;28;20433;-74
2021/04/20 02:43:52;;;;;;;47.38;35.63;;;14.00;85.40;;;;;;5073176;28;20431;-75
2021/04/20 02:46:19;;;;;;;46.55;35.13;;;14.00;85.30;;;;;;5075794;28;20424;-75
2021/04/20 02:48:45;;;;;;;47.83;35.40;;;14.00;85.50;;;;;;5072512;28;20796;-74
2021/04/20 02:51:14;;;;;;;46.25;35.38;;;14.00;85.60;;;;;;5069242;28;20515;-74
2021/04/20 02:53:43;;;;;;;47.53;35.70;;;14.00;85.60;;;;;;5070378;28;20785;-74
2021/04/20 02:56:12;;;;;;;46.53;35.88;;;13.90;85.60;;;;;;5074586;28;20450;-74
2021/04/20 02:58:40;;;;;;;47.88;36.28;;;13.90;86.00;;;;;;5068741;28;20959;-75
2021/04/20 03:01:16;;;;;;;47.38;35.17;;;13.90;86.40;;;;;;5071324;28;20421;-73
2021/04/20 03:03:43;;;;;;;49.22;35.15;;;13.90;86.10;;;;;;5067006;28;20423;-74
2021/04/20 03:06:11;;;;;;;46.42;35.50;;;13.80;86.40;;;;;;5073102;28;20431;-73
2021/04/20 03:08:38;;;;;;;48.58;35.92;;;13.80;86.90;;;;;;5067396;28;20447;-72
2021/04/20 03:11:09;;;;;;;47.67;35.03;;;13.80;85.80;;;;;;5073224;28;20416;-72
2021/04/20 03:13:36;;;;;;;49.83;36.47;;;13.70;85.60;;;;;;5074101;28;20519;-76
2021/04/20 03:16:05;;;;;;;49.10;36.05;;;13.70;85.60;;;;;;5074946;28;21017;-75
2021/04/20 03:18:32;;;;;;;47.83;35.03;;;13.70;86.00;;;;;;5072897;28;20421;-75
2021/04/20 03:21:00;;;;;;;52.72;36.30;;;13.60;86.00;;;;;;5069179;28;20413;-74
2021/04/20 03:23:30;;;;;;;52.03;38.80;;;13.60;85.70;;;;;;5071636;28;20415;-75
2021/04/20 03:25:58;;;;;;;48.33;35.95;;;13.60;85.70;;;;;;5075947;28;20898;-74
2021/04/20 03:28:24;;;;;;;48.22;34.80;;;13.60;85.50;;;;;;5066676;28;20423;-75
2021/04/20 03:30:53;;;;;;;49.50;36.08;;;13.50;85.40;;;;;;5075842;28;20413;-76
2021/04/20 03:33:25;;;;;;;50.00;36.28;;;13.50;85.50;;;;;;5070774;28;20513;-75
2021/04/20 03:35:58;;;;;;;51.58;36.72;;;13.50;86.00;;;;;;5069067;28;20431;-74
2021/04/20 03:38:28;;;;;;;47.47;36.03;;;13.50;86.60;;;;;;5068370;28;20427;-75
2021/04/20 03:41:00;;;;;;;52.20;36.90;;;13.40;86.80;;;;;;5067994;28;20415;-75
2021/04/20 03:43:31;;;;;;;54.17;37.13;;;13.30;87.10;;;;;;5066967;28;20437;-75
2021/04/20 03:46:01;;;;;;;51.78;37.08;;;13.30;87.50;;;;;;5069757;28;20446;-75
2021/04/20 03:48:34;;;;;;;53.75;38.70;;;13.30;87.70;;;;;;5064088;28;20438;-74
2021/04/20 03:51:05;;;;;;;53.17;37.97;;;13.30;87.50;;;;;;5074091;28;20429;-74
2021/04/20 03:53:33;;;;;;;57.08;38.58;;;13.30;88.00;;;;;;5070276;28;20430;-74
2021/04/20 03:56:02;;;;;;;54.25;38.47;;;13.20;88.60;;;;;;5073719;28;20516;-75
2021/04/20 03:58:30;;;;;;;54.15;37.97;;;13.20;88.80;;;;;;5073348;28;20478;-75
2021/04/20 04:01:01;;;;;;;52.67;37.87;;;13.20;89.20;;;;;;5070617;28;20787;-75
2021/04/20 04:03:29;;;;;;;55.77;38.00;;;13.20;89.20;;;;;;5077556;28;20425;-74
2021/04/20 04:05:59;;;;;;;52.20;37.63;;;13.20;89.10;;;;;;5068475;28;20421;-74
2021/04/20 04:08:27;;;;;;;54.65;38.60;;;13.20;89.50;;;;;;5067521;28;20421;-74
2021/04/20 04:10:59;;;;;;;52.27;37.83;;;13.20;89.50;;;;;;5071661;28;20514;-74
2021/04/20 04:13:28;;;;;;;53.50;37.93;;;13.10;89.20;;;;;;5071657;28;20430;-75
2021/04/20 04:15:59;;;;;;;54.63;38.25;;;13.10;89.50;;;;;;5067714;28;20419;-75
2021/04/20 04:18:27;;;;;;;53.88;39.13;;;13.10;89.50;;;;;;5064367;28;20431;-75
2021/04/20 04:20:55;;;;;;;53.47;38.78;;;13.10;89.40;;;;;;5075083;28;20429;-74
2021/04/20 04:23:24;;;;;;;56.63;38.87;;;13.10;89.50;;;;;;5071551;28;20419;-76
2021/04/20 04:25:56;;;;;;;51.80;38.07;;;13.00;89.40;;;;;;5069698;28;20430;-74
2021/04/20 04:28:24;;;;;;;54.78;38.25;;;13.00;89.40;;;;;;5065630;28;20976;-75
2021/04/20 04:30:52;;;;;;;54.35;38.65;;;13.00;89.70;;;;;;5066183;28;20984;-75
2021/04/20 04:33:19;;;;;;;52.78;37.55;;;13.00;89.90;;;;;;5067379;28;20429;-75
2021/04/20 04:35:47;;;;;;;50.75;36.80;;;13.00;90.00;;;;;;5075110;28;20425;-74
2021/04/20 04:38:15;;;;;;;55.22;38.50;;;12.90;89.60;;;;;;5072482;28;20437;-74
2021/04/20 04:40:42;;;;;;;56.72;38.95;;;12.90;89.40;;;;;;5072325;28;20427;-76
2021/04/20 04:43:09;;;;;;;58.15;39.65;;;12.90;89.70;;;;;;5064602;28;20431;-75
2021/04/20 04:45:35;;;;;;;54.63;39.25;;;12.90;90.10;;;;;;5069049;28;20427;-74
2021/04/20 04:48:03;;;;;;;57.22;39.33;;;12.90;90.10;;;;;;5068382;28;20755;-75
2021/04/20 04:50:31;;;;;;;57.67;38.78;;;12.90;90.00;;;;;;5067444;28;20438;-75
2021/04/20 04:52:59;;;;;;;55.78;38.85;;;12.90;90.00;;;;;;5072722;28;20426;-75
2021/04/20 04:55:25;;;;;;;59.28;39.63;;;12.80;89.90;;;;;;5077486;28;20425;-76
2021/04/20 04:57:53;;;;;;;57.63;39.38;;;12.80;90.00;;;;;;5074194;28;20494;-76
2021/04/20 05:00:20;;;;;;;57.27;39.27;;;12.80;90.00;;;;;;5075660;28;20434;-72
2021/04/20 05:02:48;;;;;;;58.72;40.10;;;12.80;89.60;;;;;;5083878;28;20433;-75
2021/04/20 05:05:17;;;;;;;58.97;40.75;;;12.80;89.80;;;;;;5077506;28;20944;-72
2021/04/20 05:07:44;;;;;;;55.80;39.10;;;12.80;89.70;;;;;;5075884;28;20431;-74
2021/04/20 05:10:13;;;;;;;55.00;38.55;;;12.80;90.00;;;;;;5073255;28;20490;-74
2021/04/20 05:12:41;;;;;;;54.83;39.73;;;12.70;89.90;;;;;;5077686;28;20428;-74
2021/04/20 05:15:09;;;;;;;58.83;40.05;;;12.70;89.90;;;;;;5073768;28;20421;-75
2021/04/20 05:17:37;;;;;;;55.53;38.80;;;12.70;90.10;;;;;;5074554;28;20421;-75
2021/04/20 05:20:05;;;;;;;55.40;38.97;;;12.70;90.20;;;;;;5072385;28;20427;-77
2021/04/20 05:22:34;;;;;;;55.13;39.50;;;12.70;90.00;;;;;;5072953;28;20428;-75
2021/04/20 05:25:01;;;;;;;54.30;39.27;;;12.70;90.00;;;;;;5072582;28;20415;-75
2021/04/20 05:27:28;;;;;;;59.03;40.70;;;12.70;90.20;;;;;;5076793;28;20431;-74
2021/04/20 05:29:54;;;;;;;54.63;38.73;;;12.70;90.30;;;;;;5071173;28;20434;-74
2021/04/20 05:32:20;;;;;;;55.70;40.10;;;12.70;90.40;;;;;;5072560;28;20907;-74
2021/04/20 05:34:47;;;;;;;59.50;40.83;;;12.70;90.50;;;;;;5077298;28;20431;-75
2021/04/20 05:37:13;;;;;;;59.45;40.75;;;12.70;90.70;;;;;;5083450;28;20492;-75
2021/04/20 05:39:40;;;;;;;56.60;41.10;;;12.80;90.80;;;;;;5075384;28;20764;-75
2021/04/20 05:42:07;;;;;;;60.67;41.50;;;12.70;91.00;;;;;;5075293;28;20513;-75
2021/04/20 05:44:33;;;;;;;64.47;43.15;;;12.80;91.30;;;;;;5071548;28;20519;-73
2021/04/20 05:47:00;;;;;;;61.40;43.80;;;12.80;91.50;;;;;;5067929;28;20415;-74
2021/04/20 05:49:27;;;;;;;64.45;43.92;;;12.80;91.80;;;;;;5068067;28;20438;-76
2021/04/20 05:51:54;;;;;;;68.70;44.72;;;12.80;92.00;;;;;;5066814;28;20415;-75
2021/04/20 05:54:20;;;;;;;64.18;44.17;;;12.80;92.10;;;;;;5078070;28;20819;-73
2021/04/20 05:56:50;;;;;;;62.63;44.08;;;12.90;92.20;;;;;;5090197;28;20418;-74
2021/04/20 05:59:17;;;;;;;64.85;44.00;;;12.90;92.20;;;;;;5081077;28;20879;-76
2021/04/20 06:01:45;;;;;;;64.07;43.78;;;12.90;92.30;;;;;;5073100;28;20477;-74
2021/04/20 06:04:12;;;;;;;64.10;43.60;;;12.90;92.20;;;;;;5076452;28;20791;-73
2021/04/20 06:06:41;;;;;;;65.60;45.30;;;13.00;92.30;;;;;;5079479;28;20417;-77
2021/04/20 06:09:09;;;;;;;65.90;44.00;;;13.00;92.30;;;;;;5078893;28;20455;-75
2021/04/20 06:11:38;;;;;;;67.65;45.78;;;13.00;92.40;;;;;;5077664;28;20492;-75
2021/04/20 06:14:06;;;;;;;66.23;45.53;;;13.10;92.40;;;;;;5075425;28;20791;-73
2021/04/20 06:16:34;;;;;;;68.03;45.05;;;13.10;92.50;;;;;;5074476;28;20430;-74
2021/04/20 06:19:01;;;;;;;69.05;44.45;;;13.10;92.50;;;;;;5079403;28;20890;-74
2021/04/20 06:21:29;;;;;;;71.47;46.33;;;13.20;92.60;;;;;;5069119;28;20912;-76
2021/04/20 06:23:57;;;;;;;68.32;45.10;;;13.20;92.60;;;;;;5071674;28;20424;-73
2021/04/20 06:26:24;;;;;;;67.97;45.13;;;13.20;92.70;;;;;;5070525;28;20884;-74
2021/04/20 06:28:50;;;;;;;65.25;44.22;;;13.20;92.70;;;;;;5082453;28;20537;-74
2021/04/20 06:31:18;;;;;;;70.38;44.83;;;13.30;92.70;;;;;;5076144;28;20432;-74
2021/04/20 06:33:46;;;;;;;67.00;44.80;;;13.30;92.70;;;;;;5077893;28;20905;-74
2021/04/20 06:36:12;;;;;;;70.72;45.55;;;13.30;92.70;;;;;;5079192;28;20438;-74
2021/04/20 06:38:39;;;;;;;67.60;44.45;;;13.30;92.70;;;;;;5081782;28;20476;-73
2021/04/20 06:41:09;;;;;;;71.32;45.42;;;13.40;92.70;;;;;;5081655;28;21014;-76
2021/04/20 06:43:45;;;;;;;73.57;46.90;;;13.40;92.70;;;;;;5077872;28;20568;-74
2021/04/20 06:46:15;;;;;;;65.75;45.10;;;13.40;92.70;;;;;;5072487;28;20787;-74
2021/04/20 06:48:46;;;;;;;69.37;44.93;;;13.40;92.60;;;;;;5082683;28;20406;-74
2021/04/20 06:51:15;;;;;;;68.22;44.53;;;13.40;92.50;;;;;;5071642;28;20415;-74
2021/04/20 06:53:45;;;;;;;65.95;44.22;;;13.50;92.50;;;;;;5074877;28;20778;-72
2021/04/20 06:56:26;;;;;;;70.77;44.40;;;13.50;92.50;;;;;;5076890;28;20421;-74
2021/04/20 06:59:02;;;;;;;67.80;44.75;;;13.60;92.60;;;;;;5073775;28;20411;-75
2021/04/20 07:01:35;;;;;;;66.50;44.37;;;13.60;92.60;;;;;;5069405;28;20518;-77
2021/04/20 07:04:26;;;;;;;65.93;44.40;;;13.60;92.50;;;;;;5076454;28;20418;-73
2021/04/20 07:07:01;;;;;;;64.90;44.15;;;13.70;92.30;;;;;;5073589;28;20433;-74
2021/04/20 07:09:32;;;;;;;69.88;44.80;;;13.70;92.40;;;;;;5071210;28;20438;-73
2021/04/20 07:12:01;;;;;;;71.57;46.40;;;13.70;92.40;;;;;;5070092;28;20413;-73
2021/04/20 07:14:33;;;;;;;70.18;44.70;;;13.80;92.40;;;;;;5081804;28;20504;-73
2021/04/20 07:17:23;;;;;;;66.55;45.33;;;13.80;92.50;;;;;;5082667;28;20424;-73
2021/04/20 07:20:18;;;;;;;69.53;44.75;;;13.80;92.40;;;;;;5065291;28;20802;-75
2021/04/20 07:23:04;;;;;;;69.20;44.00;;;13.90;92.20;;;;;;5066242;28;20514;-74
2021/04/20 07:26:04;;;;;;;63.10;41.30;;;13.90;92.30;;;;;;5073863;28;20434;-74
2021/04/20 07:28:46;;;;;;;62.47;42.55;;;13.90;91.70;;;;;;5069658;28;20432;-74
2021/04/20 07:31:17;;;;;;;61.57;40.50;;;13.90;91.20;;;;;;5073730;28;20423;-75
2021/04/20 07:33:58;;;;;;;56.92;40.00;;;14.00;90.70;;;;;;5080446;28;20841;-73
2021/04/20 07:36:36;;;;;;;55.55;37.63;;;14.00;90.60;;;;;;5075533;28;20210;-74
2021/04/20 07:39:10;;;;;;;60.00;37.97;;;13.70;91.20;;;;;;5071663;28;20202;-74
2021/04/20 07:41:44;;;;;;;60.17;37.28;;;13.50;91.60;;;;;;5073897;28;20211;-75
2021/04/20 07:44:22;;;;;;;61.47;37.88;;;13.40;91.90;;;;;;5074390;28;20201;-74
2021/04/20 07:46:52;;;;;;;58.20;36.90;;;13.30;92.00;;;;;;5073877;28;20230;-74
2021/04/20 07:49:23;;;;;;;60.95;37.50;;;13.20;92.10;;;;;;5067178;28;20206;-74
2021/04/20 07:51:56;;;;;;;68.93;38.08;;;13.20;92.10;;;;;;5076256;28;20198;-73
2021/04/20 07:54:33;;;;;;;58.13;37.60;;;13.20;92.50;;;;;;5071988;28;20198;-74
2021/04/20 07:57:07;;;;;;;67.18;39.65;;;13.10;92.20;;;;;;5064449;28;20202;-72
2021/04/20 07:59:43;;;;;;;68.47;39.38;;;13.10;92.30;;;;;;5071301;28;20619;-74
2021/04/20 08:02:22;;;;;;;63.92;38.08;;;13.10;92.30;;;;;;5076619;28;20395;-74
2021/04/20 08:04:56;;;;;;;64.57;38.85;;;13.20;92.40;;;;;;5088773;28;20696;-76
2021/04/20 08:07:33;;;;;;;64.03;38.38;;;13.10;92.40;;;;;;5071659;28;20654;-74
2021/04/20 08:10:03;;;;;;;59.47;37.95;;;13.20;92.50;;;;;;5072741;28;20194;-74
2021/04/20 08:12:36;;;;;;;64.55;37.90;;;13.20;92.50;;;;;;5073379;28;20251;-74
2021/04/20 08:15:09;;;;;;;58.30;37.50;;;13.20;92.50;;;;;;5073316;28;20229;-74
2021/04/20 08:17:44;;;;;;;62.05;37.95;;;13.30;92.50;;;;;;5068359;28;20663;-74
2021/04/20 08:20:14;;;;;;;58.33;37.88;;;13.30;92.60;;;;;;5071900;28;20216;-73
2021/04/20 08:22:44;;;;;;;63.58;38.28;;;13.40;92.60;;;;;;5064411;28;20578;-73
2021/04/20 08:25:18;;;;;;;59.65;37.83;;;13.40;92.30;;;;;;5070586;28;20208;-75
2021/04/20 08:27:50;;;;;;;57.90;35.75;;;13.40;92.30;;;;;;5070608;28;20262;-73
2021/04/20 08:30:21;;;;;;;57.88;36.55;;;13.50;92.20;;;;;;5064596;28;20210;-75
2021/04/20 08:32:51;;;;;;;56.38;36.28;;;13.50;92.10;;;;;;5070389;28;20195;-73
2021/04/20 08:35:20;;;;;;;57.45;35.88;;;13.60;92.00;;;;;;5067452;28;20690;-74
2021/04/20 08:38:06;;;;;;;58.95;35.97;;;13.60;92.00;;;;;;5071187;28;20207;-74
2021/04/20 08:40:41;;;;;;;57.42;36.15;;;13.70;91.90;;;;;;5065630;28;20201;-74
2021/04/20 08:43:23;;;;;;;58.45;36.30;;;13.70;91.90;;;;;;5072413;28;20218;-72
2021/04/20 08:45:56;;;;;;;53.80;34.42;;;13.80;91.80;;;;;;5069331;28;21138;-73
2021/04/20 08:48:34;;;;;;;56.83;35.45;;;13.90;91.70;;;;;;5068834;28;20255;-73
2021/04/20 08:51:08;;;;;;;54.22;34.70;;;13.90;91.60;;;;;;5070083;28;20201;-72
2021/04/20 08:53:44;;;;;;;56.78;35.72;;;14.00;91.40;;;;;;5072482;28;20221;-75
2021/04/20 08:56:19;;;;;;;50.00;32.80;;;14.00;91.20;;;;;;5061373;28;20212;-73
2021/04/20 08:59:26;;;;;;;53.40;34.38;;;14.10;91.10;;;;;;5063992;28;20210;-74
2021/04/20 09:02:08;;;;;;;55.65;34.10;;;14.20;90.80;;;;;;5070323;28;20594;-73
2021/04/20 09:04:54;;;;;;;50.35;33.70;;;14.20;90.70;;;;;;5073889;28;20218;-73
2021/04/20 09:07:31;;;;;;;49.08;29.67;;;14.30;90.50;;;;;;5062561;28;20226;-73
2021/04/20 09:10:04;;;;;;;49.55;31.23;;;14.40;90.30;;;;;;5066290;28;20205;-74
2021/04/20 09:12:36;;;;;;;56.17;30.05;;;14.40;90.00;;;;;;5072122;28;20191;-74
2021/04/20 09:15:04;;;;;;;47.08;29.33;;;14.50;89.80;;;;;;5077894;28;20663;-74
2021/04/20 09:17:37;;;;;;;44.50;28.10;;;14.60;89.30;;;;;;5068622;28;20205;-73
2021/04/20 09:20:16;;;;;;;42.05;27.52;;;14.70;88.60;;;;;;5067698;28;20205;-73
2021/04/20 09:22:51;;;;;;;39.53;25.52;;;14.70;88.00;;;;;;5074200;28;20225;-72
2021/04/20 09:25:22;;;;;;;39.53;25.90;;;14.80;87.20;;;;;;5066213;28;20645;-73
2021/04/20 09:27:56;;;;;;;42.08;26.77;;;14.90;86.30;;;;;;5069737;28;20198;-73
2021/04/20 09:30:26;;;;;;;35.50;22.88;;;15.00;85.60;;;;;;5076658;28;20202;-74
2021/04/20 09:32:55;;;;;;;36.17;23.67;;;15.10;84.90;;;;;;5072661;28;20202;-73
2021/04/20 09:35:24;;;;;;;40.40;25.33;;;15.20;84.00;;;;;;5078025;28;20224;-73
2021/04/20 09:37:52;;;;;;;36.60;24.33;;;15.20;83.40;;;;;;5073488;28;20237;-74
2021/04/20 09:40:22;;;;;;;38.38;25.80;;;15.30;82.80;;;;;;5066968;28;20248;-74
2021/04/20 09:42:54;;;;;;;43.67;25.80;;;15.40;82.30;;;;;;5064487;28;20206;-73
2021/04/20 09:45:27;;;;;;;35.70;25.00;;;15.40;81.70;;;;;;5072284;28;20210;-74
2021/04/20 09:48:06;;;;;;;38.55;23.83;;;15.50;81.20;;;;;;5076509;28;20223;-74
2021/04/20 09:50:43;;;;;;;36.40;24.25;;;15.60;80.60;;;;;;5073356;28;20202;-73
2021/04/20 09:53:21;;;;;;;35.03;22.60;;;15.70;80.10;;;;;;5074097;28;20224;-74
2021/04/20 09:55:56;;;;;;;32.97;20.67;;;15.70;79.40;;;;;;5075516;28;20202;-74
2021/04/20 09:58:24;;;;;;;33.67;21.58;;;15.90;79.00;;;;;;5073269;28;20205;-77
2021/04/20 10:00:51;;;;;;;30.50;20.10;;;15.90;78.30;;;;;;5071805;28;20202;-73
2021/04/20 10:03:33;;;;;;;27.55;17.75;;;16.10;77.50;;;;;;5072769;28;20190;-75
2021/04/20 10:06:12;;;;;;;26.45;17.67;;;16.20;76.30;;;;;;5073676;28;20202;-75
2021/04/20 10:08:50;;;;;;;25.70;17.30;;;16.30;75.30;;;;;;5070002;28;20712;-74
2021/04/20 10:11:25;;;;;;;24.20;16.92;;;16.40;74.30;;;;;;5068660;28;20213;-76
2021/04/20 10:14:08;;;;;;;24.25;15.70;;;16.50;73.40;;;;;;5067868;28;22998;-73
2021/04/20 10:16:40;;;;;;;27.10;17.90;;;16.60;72.20;;;;;;5074886;28;20575;-74
2021/04/20 10:19:22;;;;;;;33.53;21.38;;;16.70;71.70;;;;;;5074491;28;20345;-74
2021/04/20 10:22:00;;;;;;;25.70;17.70;;;16.80;71.40;;;;;;5072065;28;20827;-74
2021/04/20 10:24:28;;;;;;;28.63;19.50;;;17.00;72.10;;;;;;5075445;28;20210;-75
2021/04/20 10:27:00;;;;;;;26.98;18.48;;;17.10;70.70;;;;;;5075782;28;20275;-74
2021/04/20 10:29:31;;;;;;;30.55;19.05;;;17.20;69.40;;;;;;5078971;28;20213;-75
2021/04/20 10:32:04;;;;;;;25.92;18.70;;;17.30;68.40;;;;;;5066873;28;20585;-73
2021/04/20 10:34:30;;;;;;;28.25;19.75;;;17.70;62.50;;;;;;5071797;28;20689;-73
2021/04/20 10:36:58;;;;;;;29.77;19.20;;;17.80;63.70;;;;;;5079863;28;20618;-73
2021/04/20 10:39:25;;;;;;;26.80;18.88;;;17.80;63.70;;;;;;5074642;28;20204;-74
2021/04/20 10:41:55;;;;;;;26.95;19.98;;;17.80;63.40;;;;;;5074856;28;20210;-72
2021/04/20 10:44:24;;;;;;;28.00;20.33;;;17.80;63.60;;;;;;5077313;28;20202;-75
2021/04/20 10:46:56;;;;;;;34.33;22.08;;;18.00;63.90;;;;;;5072491;28;20256;-73
2021/04/20 10:49:24;;;;;;;33.63;20.55;;;18.00;64.00;;;;;;5068440;28;20218;-73
2021/04/20 10:51:54;;;;;;;33.90;21.70;;;18.00;64.10;;;;;;5068206;28;20655;-75
2021/04/20 10:54:22;;;;;;;35.75;22.30;;;18.00;64.00;;;;;;5071965;28;20191;-75
2021/04/20 10:56:51;;;;;;;32.20;21.70;;;18.00;64.20;;;;;;5078849;28;20201;-72
2021/04/20 10:59:26;;;;;;;36.10;22.95;;;18.00;64.30;;;;;;5078115;28;20215;-73
2021/04/20 11:01:53;;;;;;;36.45;22.92;;;18.00;64.20;;;;;;5077685;28;20217;-71
2021/04/20 11:04:22;;;;;;;38.92;24.15;;;18.00;63.90;;;;;;5069221;28;20309;-70
2021/04/20 11:07:07;;;;;;;48.28;31.42;;;18.00;63.70;;;;;;5071112;28;20260;-70
2021/04/20 11:09:34;;;;;;;44.85;29.33;;;18.00;64.70;;;;;;5066313;28;20575;-70
2021/04/20 11:12:12;;;;;;;41.60;28.80;;;17.90;65.30;;;;;;5074164;28;20716;-74
2021/04/20 11:14:41;;;;;;;42.20;28.63;;;17.90;65.60;;;;;;5066699;28;20206;-73
2021/04/20 11:17:18;;;;;;;46.08;29.33;;;17.90;66.10;;;;;;5069087;28;20354;-73
2021/04/20 11:19:50;;;;;;;44.38;30.65;;;17.90;66.50;;;;;;5072879;28;20259;-73
2021/04/20 11:22:19;;;;;;;45.00;29.42;;;17.90;67.10;;;;;;5069826;28;20226;-74
2021/04/20 11:24:54;;;;;;;44.05;29.40;;;17.90;67.70;;;;;;5066350;28;20211;-73
2021/04/20 11:27:24;;;;;;;42.40;29.38;;;18.00;67.60;;;;;;5068959;28;20207;-74
2021/04/20 11:29:56;;;;;;;43.13;30.17;;;17.90;67.20;;;;;;5061867;28;20207;-73
2021/04/20 11:32:26;;;;;;;44.75;29.77;;;17.90;67.10;;;;;;5072781;28;20198;-74
2021/04/20 11:34:56;;;;;;;41.83;27.17;;;18.00;67.10;;;;;;5072910;28;20206;-74
2021/04/20 11:37:25;;;;;;;41.42;28.17;;;18.00;66.90;;;;;;5067424;28;20210;-75
2021/04/20 11:39:59;;;;;;;43.65;28.08;;;18.10;66.90;;;;;;5066808;28;20209;-76
2021/04/20 11:42:32;;;;;;;38.45;25.40;;;18.10;66.50;;;;;;5067878;28;20560;-73
2021/04/20 11:45:03;;;;;;;38.00;26.52;;;18.10;65.90;;;;;;5069955;28;20202;-74
2021/04/20 11:47:30;;;;;;;35.38;25.85;;;18.20;65.80;;;;;;5070483;28;20216;-72
2021/04/20 11:50:08;;;;;;;38.28;25.38;;;18.20;65.40;;;;;;5069001;28;20209;-73
2021/04/20 11:52:35;;;;;;;38.58;25.73;;;18.30;65.60;;;;;;5072332;28;20646;-74
2021/04/20 11:55:04;;;;;;;41.08;25.70;;;18.30;65.40;;;;;;5070086;28;20223;-74
2021/04/20 11:57:31;;;;;;;44.97;30.15;;;18.40;65.20;;;;;;5068795;28;20206;-71
2021/04/20 11:59:58;;;;;;;44.22;30.77;;;18.50;65.50;;;;;;5066582;28;20277;-73
2021/04/20 12:02:28;;;;;;;44.63;29.98;;;18.50;65.60;;;;;;5071699;28;20222;-74
2021/04/20 12:05:00;;;;;;;41.88;28.42;;;18.50;65.90;;;;;;5070709;28;20446;-72
2021/04/20 12:07:28;;;;;;;38.25;27.13;;;18.50;65.90;;;;;;5067930;28;20209;-73
2021/04/20 12:09:55;;;;;;;40.13;26.65;;;18.40;65.70;;;;;;5067595;28;20576;-73
2021/04/20 12:12:26;;;;;;;41.42;28.42;;;18.50;65.90;;;;;;5075022;28;20794;-73
2021/04/20 12:14:54;;;;;;;46.72;29.08;;;18.60;65.80;;;;;;5065960;28;20207;-74
2021/04/20 12:17:28;;;;;;;44.28;29.30;;;18.70;65.50;;;;;;5069992;28;20549;-73
2021/04/20 12:19:56;;;;;;;39.95;27.83;;;18.80;64.90;;;;;;5067179;28;20217;-75
2021/04/20 12:22:24;;;;;;;40.33;27.48;;;18.90;64.90;;;;;;5069200;28;20225;-73
2021/04/20 12:24:52;;;;;;;37.80;27.33;;;19.00;64.70;;;;;;5068398;28;20202;-73
2021/04/20 12:27:23;;;;;;;38.40;26.38;;;19.10;64.40;;;;;;5072983;28;20190;-74
2021/04/20 12:29:51;;;;;;;39.83;26.25;;;19.30;64.00;;;;;;5067251;28;20237;-75
2021/04/20 12:32:23;;;;;;;40.63;28.52;;;19.40;63.60;;;;;;5066725;28;20227;-75
2021/04/20 12:34:55;;;;;;;42.83;28.33;;;19.60;63.10;;;;;;5076315;28;20588;-75
2021/04/20 12:37:23;;;;;;;42.10;28.52;;;19.60;62.80;;;;;;5066911;28;20685;-73
2021/04/20 12:39:57;;;;;;;40.53;27.48;;;19.60;62.60;;;;;;5078603;28;20214;-74
2021/04/20 12:42:28;;;;;;;37.55;26.63;;;19.60;62.20;;;;;;5070487;28;20221;-74
2021/04/20 12:44:58;;;;;;;40.08;27.45;;;19.60;61.80;;;;;;5073046;28;20335;-73